createdAt,value
2023-02-27T00:03:11.783Z,28.43
2023-02-27T00:07:11.889Z,28.44
2023-02-27T00:11:12.022Z,28.42
2023-02-27T00:15:12.173Z,28.40
2023-02-27T00:19:12.243Z,28.40
2023-02-27T00:23:12.382Z,28.41
2023-02-27T00:27:12.534Z,28.42
2023-02-27T00:31:12.834Z,28.38
2023-02-27T00:35:12.804Z,28.39
2023-02-27T00:39:12.961Z,28.36
2023-02-27T00:43:13.106Z,28.38
2023-02-27T00:47:13.229Z,28.38
2023-02-27T00:51:13.345Z,28.38
2023-02-27T00:55:13.492Z,28.34
2023-02-27T00:59:13.582Z,28.36
2023-02-27T01:03:13.722Z,28.34
2023-02-27T01:07:13.842Z,28.35
2023-02-27T01:11:13.949Z,28.31
2023-02-27T01:15:14.066Z,28.33
2023-02-27T01:19:14.261Z,28.33
2023-02-27T01:23:14.366Z,28.32
2023-02-27T01:27:14.537Z,28.30
2023-02-27T01:31:14.738Z,28.30
2023-02-27T01:35:14.832Z,28.30
2023-02-27T01:39:14.988Z,28.26
2023-02-27T01:43:15.215Z,28.27
2023-02-27T01:47:15.297Z,28.27
2023-02-27T01:51:15.497Z,28.28
2023-02-27T01:55:15.628Z,28.23
2023-02-27T01:59:15.799Z,28.25
2023-02-27T02:03:15.940Z,28.25
2023-02-27T02:07:16.107Z,28.25
2023-02-27T02:11:16.281Z,28.25
2023-02-27T02:15:16.447Z,28.25
2023-02-27T02:19:16.608Z,28.22
2023-02-27T02:23:16.701Z,28.22
2023-02-27T02:27:16.890Z,28.22
2023-02-27T02:31:17.151Z,28.20
2023-02-27T02:35:17.241Z,28.22
2023-02-27T02:39:17.414Z,28.20
2023-02-27T02:43:17.581Z,28.18
2023-02-27T02:47:17.777Z,28.19
2023-02-27T02:51:17.971Z,28.17
2023-02-27T02:55:18.120Z,28.15
2023-02-27T02:59:18.321Z,28.16
2023-02-27T03:03:18.569Z,28.15
2023-02-27T03:07:18.818Z,28.14
2023-02-27T03:11:18.930Z,28.14
2023-02-27T03:15:19.152Z,28.13
2023-02-27T03:19:19.305Z,28.14
2023-02-27T03:23:19.516Z,28.13
2023-02-27T03:27:19.729Z,28.11
2023-02-27T03:31:19.968Z,28.09
2023-02-27T03:35:20.084Z,28.11
2023-02-27T03:39:20.320Z,28.07
2023-02-27T03:43:20.518Z,28.07
2023-02-27T03:47:20.760Z,28.08
2023-02-27T03:51:20.948Z,28.08
2023-02-27T03:55:21.089Z,28.08
2023-02-27T03:59:21.302Z,28.06
2023-02-27T04:03:21.541Z,28.05
2023-02-27T04:07:21.731Z,28.02
2023-02-27T04:11:21.727Z,28.05
2023-02-27T04:15:21.707Z,28.03
2023-02-27T04:19:21.656Z,28.05
2023-02-27T04:23:21.575Z,28.05
2023-02-27T04:27:21.580Z,28.04
2023-02-27T04:31:21.636Z,28.03
2023-02-27T04:35:21.515Z,28.03
2023-02-27T04:39:21.450Z,28.04
2023-02-27T04:43:21.464Z,28.01
2023-02-27T04:47:21.425Z,27.99
2023-02-27T04:51:21.561Z,27.99
2023-02-27T04:55:21.518Z,27.98
2023-02-27T04:59:21.506Z,27.99
2023-02-27T05:03:21.487Z,27.97
2023-02-27T05:07:21.425Z,27.99
2023-02-27T05:11:21.378Z,27.96
2023-02-27T05:15:21.387Z,27.96
2023-02-27T05:19:21.294Z,27.95
2023-02-27T05:23:21.299Z,27.95
2023-02-27T05:27:21.248Z,27.98
2023-02-27T05:31:21.339Z,27.93
2023-02-27T05:35:21.236Z,27.94
2023-02-27T05:39:21.221Z,27.94
2023-02-27T05:43:21.182Z,27.96
2023-02-27T05:47:21.143Z,27.95
2023-02-27T05:51:21.102Z,27.92
2023-02-27T05:55:21.073Z,27.90
2023-02-27T05:59:21.025Z,27.97
2023-02-27T06:03:21.020Z,28.08
2023-02-27T06:07:20.930Z,28.20
2023-02-27T06:11:21.005Z,28.20
2023-02-27T06:15:20.950Z,28.24
2023-02-27T06:19:20.938Z,28.35
2023-02-27T06:23:21.028Z,28.42
2023-02-27T06:27:20.834Z,28.41
2023-02-27T06:31:20.804Z,28.49
2023-02-27T06:35:20.783Z,28.53
2023-02-27T06:39:21.023Z,26.23
2023-02-27T06:43:20.709Z,25.57
2023-02-27T06:47:21.034Z,24.89
2023-02-27T06:51:21.015Z,24.82
2023-02-27T06:55:21.038Z,24.08
2023-02-27T06:59:21.018Z,24.63
2023-02-27T07:03:20.901Z,25.20
2023-02-27T07:07:35.189Z,26.16
2023-02-27T07:11:21.912Z,26.95
2023-02-27T07:15:20.906Z,27.81
2023-02-27T07:19:21.056Z,28.33
2023-02-27T07:23:20.975Z,29.12
2023-02-27T07:27:21.140Z,28.95
2023-02-27T07:31:21.593Z,29.30
2023-02-27T07:35:21.323Z,29.83
2023-02-27T07:39:21.388Z,30.46
2023-02-27T07:43:21.466Z,30.84
2023-02-27T07:47:21.567Z,31.49
2023-02-27T07:51:21.598Z,31.95
2023-02-27T07:55:21.559Z,31.84
2023-02-27T07:59:21.532Z,32.65
2023-02-27T08:03:21.578Z,32.53
2023-02-27T08:07:21.609Z,32.55
2023-02-27T08:11:22.100Z,33.22
2023-02-27T08:15:21.681Z,32.91
2023-02-27T08:19:21.730Z,33.25
2023-02-27T08:23:21.787Z,33.37
2023-02-27T08:27:21.853Z,33.68
2023-02-27T08:31:21.926Z,33.44
2023-02-27T08:35:21.912Z,33.58
2023-02-27T08:39:21.903Z,33.39
2023-02-27T08:43:22.066Z,32.94
2023-02-27T08:47:21.945Z,29.40
2023-02-27T08:51:22.596Z,28.29
2023-02-27T08:55:22.144Z,26.86
2023-02-27T08:59:30.090Z,25.89
2023-02-27T09:03:22.245Z,25.33
2023-02-27T09:07:22.178Z,24.82
2023-02-27T09:11:22.160Z,24.26
2023-02-27T09:15:22.088Z,23.61
2023-02-27T09:19:22.210Z,23.15
2023-02-27T09:23:22.318Z,22.67
2023-02-27T09:27:22.375Z,22.65
2023-02-27T09:31:22.469Z,23.63
2023-02-27T09:35:22.663Z,24.60
2023-02-27T09:39:23.136Z,25.68
2023-02-27T09:43:24.640Z,27.30
2023-02-27T09:47:23.181Z,28.18
2023-02-27T09:51:23.131Z,28.64
2023-02-27T09:55:23.648Z,29.26
2023-02-27T09:59:23.321Z,29.76
2023-02-27T10:03:23.637Z,30.56
2023-02-27T10:07:23.711Z,30.96
2023-02-27T10:11:23.866Z,31.46
2023-02-27T10:15:23.933Z,32.03
2023-02-27T10:19:23.983Z,32.69
2023-02-27T10:23:24.028Z,33.33
2023-02-27T10:27:24.063Z,33.73
2023-02-27T10:31:24.171Z,33.94
2023-02-27T10:35:24.263Z,34.24
2023-02-27T10:39:24.650Z,34.56
2023-02-27T10:43:24.639Z,34.79
2023-02-27T10:47:24.264Z,34.75
2023-02-27T10:51:24.396Z,35.17
2023-02-27T10:55:24.653Z,35.42
2023-02-27T10:59:24.460Z,35.80
2023-02-27T11:03:24.520Z,36.08
2023-02-27T11:07:24.670Z,36.33
2023-02-27T11:11:24.987Z,36.67
2023-02-27T11:15:25.158Z,36.90
2023-02-27T11:19:24.964Z,37.19
2023-02-27T11:23:25.044Z,37.42
2023-02-27T11:27:25.682Z,37.68
2023-02-27T11:31:25.598Z,38.30
2023-02-27T11:35:25.700Z,38.27
2023-02-27T11:39:25.670Z,37.91
2023-02-27T11:43:26.187Z,37.63
2023-02-27T11:47:25.767Z,37.72
2023-02-27T11:51:26.235Z,38.37
2023-02-27T11:55:25.866Z,39.11
2023-02-27T11:59:26.011Z,40.07
2023-02-27T12:03:26.170Z,40.65
2023-02-27T12:07:26.673Z,40.99
2023-02-27T12:11:26.476Z,41.34
2023-02-27T12:15:26.405Z,41.74
2023-02-27T12:19:26.417Z,42.04
2023-02-27T12:23:26.363Z,42.84
2023-02-27T12:27:26.696Z,42.99
2023-02-27T12:31:27.106Z,43.51
2023-02-27T12:35:26.268Z,42.84
2023-02-27T12:39:26.682Z,42.16
2023-02-27T12:43:26.170Z,41.69
2023-02-27T12:47:26.198Z,41.38
2023-02-27T12:51:26.502Z,41.34
2023-02-27T12:55:26.067Z,41.11
2023-02-27T12:59:26.009Z,41.00
2023-02-27T13:03:25.984Z,37.71
2023-02-27T13:07:26.283Z,34.86
2023-02-27T13:11:26.417Z,35.45
2023-02-27T13:15:25.905Z,32.98
2023-02-27T13:19:25.959Z,31.80
2023-02-27T13:23:25.951Z,30.23
2023-02-27T13:27:25.891Z,27.92
2023-02-27T13:31:26.356Z,26.84
2023-02-27T13:35:25.906Z,25.77
2023-02-27T13:39:25.783Z,25.07
2023-02-27T13:43:25.755Z,24.59
2023-02-27T13:47:25.726Z,23.83
2023-02-27T13:51:25.887Z,23.36
2023-02-27T13:55:25.624Z,22.74
2023-02-27T13:59:25.585Z,22.82
2023-02-27T14:03:25.569Z,22.82
2023-02-27T14:07:25.588Z,22.07
2023-02-27T14:11:25.712Z,25.55
2023-02-27T14:15:25.485Z,24.88
2023-02-27T14:19:25.444Z,25.63
2023-02-27T14:23:25.401Z,26.83
2023-02-27T14:27:25.458Z,27.78
2023-02-27T14:31:25.913Z,28.57
2023-02-27T14:35:25.734Z,28.74
2023-02-27T14:39:25.858Z,29.03
2023-02-27T14:43:25.844Z,29.27
2023-02-27T14:47:25.836Z,29.89
2023-02-27T14:51:26.112Z,30.20
2023-02-27T14:55:25.847Z,30.62
2023-02-27T14:59:25.893Z,31.01
2023-02-27T15:03:25.898Z,31.29
2023-02-27T15:07:25.946Z,31.46
2023-02-27T15:11:26.658Z,30.92
2023-02-27T15:15:26.273Z,31.63
2023-02-27T15:19:26.239Z,32.00
2023-02-27T15:23:26.261Z,32.53
2023-02-27T15:27:26.305Z,33.27
2023-02-27T15:31:26.673Z,34.25
2023-02-27T15:35:26.525Z,34.41
2023-02-27T15:39:26.611Z,34.90
2023-02-27T15:43:26.676Z,34.85
2023-02-27T15:47:26.826Z,34.90
2023-02-27T15:51:27.206Z,34.95
2023-02-27T15:55:27.021Z,35.11
2023-02-27T15:59:27.158Z,35.25
2023-02-27T16:03:27.240Z,35.31
2023-02-27T16:07:27.375Z,35.42
2023-02-27T16:11:27.791Z,35.54
2023-02-27T16:15:27.650Z,35.55
2023-02-27T16:19:27.785Z,35.63
2023-02-27T16:23:27.923Z,35.71
2023-02-27T16:27:28.071Z,35.73
2023-02-27T16:31:28.251Z,35.66
2023-02-27T16:35:28.414Z,35.68
2023-02-27T16:39:28.472Z,35.68
2023-02-27T16:43:28.644Z,35.56
2023-02-27T16:47:29.175Z,35.54
2023-02-27T16:51:28.895Z,35.58
2023-02-27T16:55:29.070Z,35.60
2023-02-27T16:59:29.195Z,35.65
2023-02-27T17:03:29.344Z,35.72
2023-02-27T17:07:29.487Z,35.63
2023-02-27T17:11:29.814Z,35.75
2023-02-27T17:15:29.797Z,35.83
2023-02-27T17:19:29.954Z,35.79
2023-02-27T17:23:30.093Z,35.92
2023-02-27T17:27:30.277Z,35.87
2023-02-27T17:31:30.403Z,35.86
2023-02-27T17:35:30.615Z,35.97
2023-02-27T17:39:30.788Z,36.01
2023-02-27T17:43:30.921Z,36.09
2023-02-27T17:47:31.104Z,36.12
2023-02-27T17:51:31.321Z,36.12
2023-02-27T17:55:31.479Z,36.19
2023-02-27T17:59:31.794Z,36.23
2023-02-27T18:03:31.874Z,35.95
2023-02-27T18:07:32.003Z,35.69
2023-02-27T18:11:32.186Z,35.59
2023-02-27T18:15:32.365Z,35.53
2023-02-27T18:19:32.724Z,35.44
2023-02-27T18:23:32.779Z,35.37
2023-02-27T18:27:32.988Z,35.31
2023-02-27T18:31:33.166Z,35.21
2023-02-27T18:35:33.434Z,35.11
2023-02-27T18:39:33.340Z,35.07
2023-02-27T18:43:33.324Z,35.00
2023-02-27T18:47:33.297Z,34.93
2023-02-27T18:51:33.261Z,34.90
2023-02-27T18:55:33.200Z,34.86
2023-02-27T18:59:33.170Z,34.82
2023-02-27T19:03:33.197Z,34.78
2023-02-27T19:07:33.121Z,34.78
2023-02-27T19:11:33.371Z,34.70
2023-02-27T19:15:33.026Z,34.68
2023-02-27T19:19:33.117Z,34.67
2023-02-27T19:23:33.330Z,34.62
2023-02-27T19:27:33.295Z,34.59
2023-02-27T19:31:33.275Z,34.56
2023-02-27T19:35:33.258Z,34.50
2023-02-27T19:39:33.195Z,34.48
2023-02-27T19:43:33.163Z,34.46
2023-02-27T19:47:33.118Z,34.42
2023-02-27T19:51:33.089Z,34.38
2023-02-27T19:55:33.030Z,34.31
2023-02-27T19:59:32.994Z,34.30
2023-02-27T20:03:33.043Z,34.28
2023-02-27T20:07:32.954Z,34.23
2023-02-27T20:11:32.923Z,34.24
2023-02-27T20:15:32.893Z,34.18
2023-02-27T20:19:32.866Z,34.18
2023-02-27T20:23:32.797Z,34.12
2023-02-27T20:27:32.779Z,34.10
2023-02-27T20:31:33.104Z,34.07
2023-02-27T20:35:32.718Z,34.02
2023-02-27T20:39:32.650Z,33.99
2023-02-27T20:43:32.692Z,33.97
2023-02-27T20:47:32.672Z,33.93
2023-02-27T20:51:32.644Z,33.91
2023-02-27T20:55:32.624Z,33.92
2023-02-27T20:59:32.551Z,33.89
2023-02-27T21:03:39.596Z,33.84
2023-02-27T21:07:33.495Z,33.80
2023-02-27T21:11:32.466Z,33.77
2023-02-27T21:15:32.619Z,33.74
2023-02-27T21:19:32.577Z,33.72
2023-02-27T21:23:32.558Z,33.69
2023-02-27T21:27:32.499Z,33.65
2023-02-27T21:31:32.827Z,33.65
2023-02-27T21:35:32.453Z,33.62
2023-02-27T21:39:32.382Z,33.58
2023-02-27T21:43:32.448Z,33.59
2023-02-27T21:47:32.341Z,33.56
2023-02-27T21:51:40.610Z,33.52
2023-02-27T21:55:33.267Z,33.50
2023-02-27T21:59:32.233Z,33.46
2023-02-27T22:03:32.281Z,33.45
2023-02-27T22:07:32.413Z,33.43
2023-02-27T22:11:32.450Z,33.38
2023-02-27T22:15:32.606Z,33.37
2023-02-27T22:19:32.669Z,33.35
2023-02-27T22:23:32.743Z,33.31
2023-02-27T22:27:32.690Z,33.31
2023-02-27T22:31:33.345Z,33.28
2023-02-27T22:35:32.865Z,33.25
2023-02-27T22:39:32.982Z,33.25
2023-02-27T22:43:33.099Z,33.22
2023-02-27T22:47:33.198Z,33.21
2023-02-27T22:51:33.333Z,33.17
2023-02-27T22:55:33.394Z,33.15
2023-02-27T22:59:33.462Z,33.11
2023-02-27T23:03:33.512Z,33.10
2023-02-27T23:07:33.525Z,33.09
2023-02-27T23:11:33.556Z,33.08
2023-02-27T23:15:33.569Z,33.05
2023-02-27T23:19:33.543Z,33.04
2023-02-27T23:23:33.643Z,33.02
2023-02-27T23:27:33.623Z,33.02
2023-02-27T23:31:35.282Z,33.01
2023-02-27T23:35:33.700Z,33.00
2023-02-27T23:39:33.700Z,32.99
2023-02-27T23:43:33.692Z,32.97
2023-02-27T23:47:33.718Z,32.96
2023-02-27T23:51:34.172Z,32.95
2023-02-27T23:55:33.763Z,32.92
2023-02-27T23:59:33.789Z,32.89
